sensor_id;sensor_type;location;lat;lon;timestamp;pressure;altitude;pressure_sealevel;temperature
61977;BMP280;45905;50.570;10.428;2023-06-22T00:01:26;98129.53;;;21.27
61977;BMP280;45905;50.570;10.428;2023-06-22T00:03:54;98129.19;;;21.24
61977;BMP280;45905;50.570;10.428;2023-06-22T00:06:21;98120.09;;;21.22
61977;BMP280;45905;50.570;10.428;2023-06-22T00:08:49;98113.22;;;21.16
61977;BMP280;45905;50.570;10.428;2023-06-22T00:11:16;98114.22;;;21.15
61977;BMP280;45905;50.570;10.428;2023-06-22T00:13:44;98088.28;;;21.10
61977;BMP280;45905;50.570;10.428;2023-06-22T00:16:11;98087.16;;;21.06
61977;BMP280;45905;50.570;10.428;2023-06-22T00:18:39;98091.94;;;21.02
61977;BMP280;45905;50.570;10.428;2023-06-22T00:21:06;98094.16;;;20.99
61977;BMP280;45905;50.570;10.428;2023-06-22T00:23:34;98088.44;;;20.97
61977;BMP280;45905;50.570;10.428;2023-06-22T00:26:02;98072.06;;;20.92
61977;BMP280;45905;50.570;10.428;2023-06-22T00:28:29;98083.00;;;20.87
61977;BMP280;45905;50.570;10.428;2023-06-22T00:30:57;98084.19;;;20.85
61977;BMP280;45905;50.570;10.428;2023-06-22T00:33:25;98085.44;;;20.83
61977;BMP280;45905;50.570;10.428;2023-06-22T00:35:53;98091.00;;;20.80
61977;BMP280;45905;50.570;10.428;2023-06-22T00:38:20;98096.56;;;20.77
61977;BMP280;45905;50.570;10.428;2023-06-22T00:40:48;98111.44;;;20.75
61977;BMP280;45905;50.570;10.428;2023-06-22T00:43:16;98119.81;;;20.70
61977;BMP280;45905;50.570;10.428;2023-06-22T00:45:43;98116.06;;;20.66
61977;BMP280;45905;50.570;10.428;2023-06-22T00:48:13;98120.66;;;20.64
61977;BMP280;45905;50.570;10.428;2023-06-22T00:50:41;98118.31;;;20.63
61977;BMP280;45905;50.570;10.428;2023-06-22T00:53:09;98108.63;;;20.59
61977;BMP280;45905;50.570;10.428;2023-06-22T00:55:42;98099.56;;;20.56
61977;BMP280;45905;50.570;10.428;2023-06-22T00:58:19;98076.66;;;20.48
61977;BMP280;45905;50.570;10.428;2023-06-22T01:00:49;98082.81;;;20.47
61977;BMP280;45905;50.570;10.428;2023-06-22T01:03:16;98073.53;;;20.46
61977;BMP280;45905;50.570;10.428;2023-06-22T01:05:46;98070.38;;;20.45
61977;BMP280;45905;50.570;10.428;2023-06-22T01:08:29;98082.66;;;20.43
61977;BMP280;45905;50.570;10.428;2023-06-22T01:11:10;98078.94;;;20.39
61977;BMP280;45905;50.570;10.428;2023-06-22T01:14:14;98085.09;;;20.38
61977;BMP280;45905;50.570;10.428;2023-06-22T01:16:43;98069.31;;;20.28
61977;BMP280;45905;50.570;10.428;2023-06-22T01:19:33;98039.53;;;20.14
61977;BMP280;45905;50.570;10.428;2023-06-22T01:22:05;98029.31;;;20.08
61977;BMP280;45905;50.570;10.428;2023-06-22T01:25:13;98046.06;;;19.93
61977;BMP280;45905;50.570;10.428;2023-06-22T01:28:04;98040.53;;;19.89
61977;BMP280;45905;50.570;10.428;2023-06-22T01:30:32;98019.03;;;19.84
61977;BMP280;45905;50.570;10.428;2023-06-22T01:33:05;98013.50;;;19.81
61977;BMP280;45905;50.570;10.428;2023-06-22T01:35:33;97995.31;;;19.82
61977;BMP280;45905;50.570;10.428;2023-06-22T01:38:01;98002.59;;;19.85
61977;BMP280;45905;50.570;10.428;2023-06-22T01:40:32;98010.47;;;19.90
61977;BMP280;45905;50.570;10.428;2023-06-22T01:43:02;98019.81;;;19.85
61977;BMP280;45905;50.570;10.428;2023-06-22T01:45:30;98032.94;;;19.70
61977;BMP280;45905;50.570;10.428;2023-06-22T01:47:58;98027.66;;;19.66
61977;BMP280;45905;50.570;10.428;2023-06-22T01:50:25;98023.09;;;19.68
61977;BMP280;45905;50.570;10.428;2023-06-22T01:52:55;98020.09;;;19.70
61977;BMP280;45905;50.570;10.428;2023-06-22T01:55:22;98024.25;;;19.71
61977;BMP280;45905;50.570;10.428;2023-06-22T01:57:49;98016.38;;;19.67
61977;BMP280;45905;50.570;10.428;2023-06-22T02:00:24;98022.91;;;19.69
61977;BMP280;45905;50.570;10.428;2023-06-22T02:03:19;98028.84;;;19.69
61977;BMP280;45905;50.570;10.428;2023-06-22T02:06:01;98053.50;;;19.70
61977;BMP280;45905;50.570;10.428;2023-06-22T02:08:41;98075.25;;;19.74
61977;BMP280;45905;50.570;10.428;2023-06-22T02:11:11;98083.53;;;19.76
61977;BMP280;45905;50.570;10.428;2023-06-22T02:13:40;98096.41;;;19.76
61977;BMP280;45905;50.570;10.428;2023-06-22T02:16:15;98108.47;;;19.76
61977;BMP280;45905;50.570;10.428;2023-06-22T02:18:48;98106.09;;;19.74
61977;BMP280;45905;50.570;10.428;2023-06-22T02:21:20;98106.88;;;19.75
61977;BMP280;45905;50.570;10.428;2023-06-22T02:23:47;98116.16;;;19.76
61977;BMP280;45905;50.570;10.428;2023-06-22T02:26:17;98122.09;;;19.76
61977;BMP280;45905;50.570;10.428;2023-06-22T02:28:45;98133.38;;;19.75
61977;BMP280;45905;50.570;10.428;2023-06-22T02:31:13;98145.25;;;19.70
61977;BMP280;45905;50.570;10.428;2023-06-22T02:33:40;98173.91;;;19.73
61977;BMP280;45905;50.570;10.428;2023-06-22T02:36:07;98188.94;;;19.70
61977;BMP280;45905;50.570;10.428;2023-06-22T02:38:36;98203.38;;;19.71
61977;BMP280;45905;50.570;10.428;2023-06-22T02:41:03;98225.50;;;19.72
61977;BMP280;45905;50.570;10.428;2023-06-22T02:43:30;98233.41;;;19.70
61977;BMP280;45905;50.570;10.428;2023-06-22T02:45:57;98235.78;;;19.72
61977;BMP280;45905;50.570;10.428;2023-06-22T02:48:25;98248.84;;;19.77
61977;BMP280;45905;50.570;10.428;2023-06-22T02:50:52;98241.50;;;19.80
61977;BMP280;45905;50.570;10.428;2023-06-22T02:53:19;98228.09;;;19.78
61977;BMP280;45905;50.570;10.428;2023-06-22T02:55:47;98222.50;;;19.81
61977;BMP280;45905;50.570;10.428;2023-06-22T02:58:15;98226.06;;;19.80
61977;BMP280;45905;50.570;10.428;2023-06-22T03:00:43;98220.13;;;19.80
61977;BMP280;45905;50.570;10.428;2023-06-22T03:03:10;98223.94;;;19.77
61977;BMP280;45905;50.570;10.428;2023-06-22T03:05:38;98228.09;;;19.78
61977;BMP280;45905;50.570;10.428;2023-06-22T03:08:07;98232.78;;;19.81
61977;BMP280;45905;50.570;10.428;2023-06-22T03:10:35;98228.09;;;19.78
61977;BMP280;45905;50.570;10.428;2023-06-22T03:13:02;98205.94;;;19.77
61977;BMP280;45905;50.570;10.428;2023-06-22T03:15:30;98147.22;;;19.74
61977;BMP280;45905;50.570;10.428;2023-06-22T03:17:58;98115.19;;;19.70
61977;BMP280;45905;50.570;10.428;2023-06-22T03:20:25;98101.34;;;19.71
61977;BMP280;45905;50.570;10.428;2023-06-22T03:22:54;98097.38;;;19.75
61977;BMP280;45905;50.570;10.428;2023-06-22T03:25:22;98094.41;;;19.78
61977;BMP280;45905;50.570;10.428;2023-06-22T03:27:50;98072.41;;;19.82
61977;BMP280;45905;50.570;10.428;2023-06-22T03:30:17;98028.94;;;19.81
61977;BMP280;45905;50.570;10.428;2023-06-22T03:32:45;98003.06;;;19.76
61977;BMP280;45905;50.570;10.428;2023-06-22T03:35:14;97993.38;;;19.78
61977;BMP280;45905;50.570;10.428;2023-06-22T03:37:41;97996.16;;;19.76
61977;BMP280;45905;50.570;10.428;2023-06-22T03:40:09;98008.00;;;19.77
61977;BMP280;45905;50.570;10.428;2023-06-22T03:42:36;98019.09;;;19.78
61977;BMP280;45905;50.570;10.428;2023-06-22T03:45:04;98022.00;;;19.81
61977;BMP280;45905;50.570;10.428;2023-06-22T03:47:32;98032.09;;;19.83
61977;BMP280;45905;50.570;10.428;2023-06-22T03:50:03;98038.22;;;19.82
61977;BMP280;45905;50.570;10.428;2023-06-22T03:52:31;98026.16;;;19.82
61977;BMP280;45905;50.570;10.428;2023-06-22T03:54:59;98033.66;;;19.84
61977;BMP280;45905;50.570;10.428;2023-06-22T03:57:26;98037.22;;;19.83
61977;BMP280;45905;50.570;10.428;2023-06-22T03:59:56;98034.25;;;19.86
61977;BMP280;45905;50.570;10.428;2023-06-22T04:02:25;98029.91;;;19.86
61977;BMP280;45905;50.570;10.428;2023-06-22T04:04:52;98035.59;;;19.88
61977;BMP280;45905;50.570;10.428;2023-06-22T04:07:20;98023.44;;;19.77
61977;BMP280;45905;50.570;10.428;2023-06-22T04:09:47;98031.41;;;19.69
61977;BMP280;45905;50.570;10.428;2023-06-22T04:12:15;98026.66;;;19.67
61977;BMP280;45905;50.570;10.428;2023-06-22T04:14:42;98032.22;;;19.64
61977;BMP280;45905;50.570;10.428;2023-06-22T04:17:09;98026.66;;;19.67
61977;BMP280;45905;50.570;10.428;2023-06-22T04:19:36;98024.28;;;19.65
61977;BMP280;45905;50.570;10.428;2023-06-22T04:22:04;98018.56;;;19.69
61977;BMP280;45905;50.570;10.428;2023-06-22T04:24:33;98016.13;;;19.74
61977;BMP280;45905;50.570;10.428;2023-06-22T04:27:00;98015.28;;;19.80
61977;BMP280;45905;50.570;10.428;2023-06-22T04:29:30;98017.25;;;19.85
61977;BMP280;45905;50.570;10.428;2023-06-22T04:31:57;98025.31;;;19.88
61977;BMP280;45905;50.570;10.428;2023-06-22T04:34:25;98033.59;;;19.90
61977;BMP280;45905;50.570;10.428;2023-06-22T04:36:55;98033.19;;;19.93
61977;BMP280;45905;50.570;10.428;2023-06-22T04:39:23;98035.91;;;19.98
61977;BMP280;45905;50.570;10.428;2023-06-22T04:41:50;98035.31;;;20.02
61977;BMP280;45905;50.570;10.428;2023-06-22T04:44:19;98022.78;;;20.06
61977;BMP280;45905;50.570;10.428;2023-06-22T04:46:57;98023.53;;;20.12
61977;BMP280;45905;50.570;10.428;2023-06-22T04:49:30;98019.53;;;20.16
61977;BMP280;45905;50.570;10.428;2023-06-22T04:52:07;98002.13;;;20.18
61977;BMP280;45905;50.570;10.428;2023-06-22T04:54:37;97997.09;;;20.23
61977;BMP280;45905;50.570;10.428;2023-06-22T04:57:07;97998.47;;;20.25
61977;BMP280;45905;50.570;10.428;2023-06-22T04:59:38;98004.53;;;20.31
61977;BMP280;45905;50.570;10.428;2023-06-22T05:02:09;98005.72;;;20.35
61977;BMP280;45905;50.570;10.428;2023-06-22T05:04:36;98012.25;;;20.37
61977;BMP280;45905;50.570;10.428;2023-06-22T05:07:06;98022.09;;;20.40
61977;BMP280;45905;50.570;10.428;2023-06-22T05:09:34;98025.69;;;20.39
61977;BMP280;45905;50.570;10.428;2023-06-22T05:12:02;98030.06;;;20.39
61977;BMP280;45905;50.570;10.428;2023-06-22T05:14:33;98024.06;;;20.45
61977;BMP280;45905;50.570;10.428;2023-06-22T05:17:00;98021.06;;;20.47
61977;BMP280;45905;50.570;10.428;2023-06-22T05:19:31;98016.84;;;20.53
61977;BMP280;45905;50.570;10.428;2023-06-22T05:22:01;98013.59;;;20.57
61977;BMP280;45905;50.570;10.428;2023-06-22T05:24:28;98020.34;;;20.58
61977;BMP280;45905;50.570;10.428;2023-06-22T05:26:56;98022.88;;;20.64
61977;BMP280;45905;50.570;10.428;2023-06-22T05:29:23;98033.50;;;20.68
61977;BMP280;45905;50.570;10.428;2023-06-22T05:31:51;98031.28;;;20.71
61977;BMP280;45905;50.570;10.428;2023-06-22T05:34:18;98026.47;;;20.75
61977;BMP280;45905;50.570;10.428;2023-06-22T05:36:45;98026.44;;;20.81
61977;BMP280;45905;50.570;10.428;2023-06-22T05:39:14;98032.50;;;20.86
61977;BMP280;45905;50.570;10.428;2023-06-22T05:41:42;98046.31;;;20.92
61977;BMP280;45905;50.570;10.428;2023-06-22T05:44:12;98042.88;;;20.98
61977;BMP280;45905;50.570;10.428;2023-06-22T05:46:42;98032.69;;;21.02
61977;BMP280;45905;50.570;10.428;2023-06-22T05:49:15;98041.53;;;21.13
61977;BMP280;45905;50.570;10.428;2023-06-22T05:51:42;98045.03;;;21.18
61977;BMP280;45905;50.570;10.428;2023-06-22T05:54:10;98056.25;;;21.23
61977;BMP280;45905;50.570;10.428;2023-06-22T05:56:37;98049.66;;;21.27
61977;BMP280;45905;50.570;10.428;2023-06-22T05:59:04;98048.00;;;21.33
61977;BMP280;45905;50.570;10.428;2023-06-22T06:01:32;98051.06;;;21.41
61977;BMP280;45905;50.570;10.428;2023-06-22T06:04:04;98053.56;;;21.47
61977;BMP280;45905;50.570;10.428;2023-06-22T06:06:31;98046.19;;;21.51
61977;BMP280;45905;50.570;10.428;2023-06-22T06:08:58;98044.88;;;21.60
61977;BMP280;45905;50.570;10.428;2023-06-22T06:11:27;98035.44;;;21.65
61977;BMP280;45905;50.570;10.428;2023-06-22T06:13:54;98031.22;;;21.70
61977;BMP280;45905;50.570;10.428;2023-06-22T06:16:22;98040.22;;;21.79
61977;BMP280;45905;50.570;10.428;2023-06-22T06:18:49;98028.66;;;21.81
61977;BMP280;45905;50.570;10.428;2023-06-22T06:21:17;98037.53;;;21.85
61977;BMP280;45905;50.570;10.428;2023-06-22T06:23:44;98037.88;;;21.89
61977;BMP280;45905;50.570;10.428;2023-06-22T06:26:12;98034.09;;;21.91
61977;BMP280;45905;50.570;10.428;2023-06-22T06:28:39;98032.09;;;21.93
61977;BMP280;45905;50.570;10.428;2023-06-22T06:31:06;98018.50;;;21.98
61977;BMP280;45905;50.570;10.428;2023-06-22T06:33:35;98022.00;;;22.03
61977;BMP280;45905;50.570;10.428;2023-06-22T06:36:02;98018.75;;;22.07
61977;BMP280;45905;50.570;10.428;2023-06-22T06:38:33;98018.66;;;22.14
61977;BMP280;45905;50.570;10.428;2023-06-22T06:41:00;98009.91;;;22.15
61977;BMP280;45905;50.570;10.428;2023-06-22T06:43:28;98004.06;;;22.19
61977;BMP280;45905;50.570;10.428;2023-06-22T06:45:55;97994.63;;;22.24
61977;BMP280;45905;50.570;10.428;2023-06-22T06:48:22;97993.41;;;22.27
61977;BMP280;45905;50.570;10.428;2023-06-22T06:50:49;97988.38;;;22.32
61977;BMP280;45905;50.570;10.428;2023-06-22T06:53:17;97984.53;;;22.34
61977;BMP280;45905;50.570;10.428;2023-06-22T06:55:44;97985.09;;;22.36
61977;BMP280;45905;50.570;10.428;2023-06-22T06:58:12;97984.44;;;22.40
61977;BMP280;45905;50.570;10.428;2023-06-22T07:00:40;97984.53;;;22.45
61977;BMP280;45905;50.570;10.428;2023-06-22T07:03:08;97983.38;;;22.53
61977;BMP280;45905;50.570;10.428;2023-06-22T07:05:35;97975.97;;;22.56
61977;BMP280;45905;50.570;10.428;2023-06-22T07:08:03;97982.28;;;22.60
61977;BMP280;45905;50.570;10.428;2023-06-22T07:10:30;97978.25;;;22.64
61977;BMP280;45905;50.570;10.428;2023-06-22T07:12:58;97967.69;;;22.65
61977;BMP280;45905;50.570;10.428;2023-06-22T07:15:25;97976.22;;;22.66
61977;BMP280;45905;50.570;10.428;2023-06-22T07:17:52;97971.16;;;22.71
61977;BMP280;45905;50.570;10.428;2023-06-22T07:20:19;97970.22;;;22.76
61977;BMP280;45905;50.570;10.428;2023-06-22T07:22:47;97970.91;;;22.83
61977;BMP280;45905;50.570;10.428;2023-06-22T07:25:14;97969.97;;;22.89
61977;BMP280;45905;50.570;10.428;2023-06-22T07:27:57;97966.03;;;22.98
61977;BMP280;45905;50.570;10.428;2023-06-22T07:30:25;97967.44;;;23.05
61977;BMP280;45905;50.570;10.428;2023-06-22T07:32:53;97954.38;;;23.12
61977;BMP280;45905;50.570;10.428;2023-06-22T07:35:21;97961.78;;;23.19
61977;BMP280;45905;50.570;10.428;2023-06-22T07:37:48;97958.81;;;23.27
61977;BMP280;45905;50.570;10.428;2023-06-22T07:40:15;97947.34;;;23.34
61977;BMP280;45905;50.570;10.428;2023-06-22T07:42:42;97944.38;;;23.42
61977;BMP280;45905;50.570;10.428;2023-06-22T07:45:10;97948.47;;;23.54
61977;BMP280;45905;50.570;10.428;2023-06-22T07:47:37;97943.72;;;23.63
61977;BMP280;45905;50.570;10.428;2023-06-22T07:50:05;97939.16;;;23.70
61977;BMP280;45905;50.570;10.428;2023-06-22T07:52:32;97929.19;;;23.78
61977;BMP280;45905;50.570;10.428;2023-06-22T07:55:00;97932.94;;;23.87
61977;BMP280;45905;50.570;10.428;2023-06-22T07:57:27;97925.94;;;23.98
61977;BMP280;45905;50.570;10.428;2023-06-22T08:00:02;97929.69;;;24.07
61977;BMP280;45905;50.570;10.428;2023-06-22T08:02:39;97915.81;;;24.18
61977;BMP280;45905;50.570;10.428;2023-06-22T08:05:09;97918.56;;;24.28
61977;BMP280;45905;50.570;10.428;2023-06-22T08:07:56;97899.53;;;24.38
61977;BMP280;45905;50.570;10.428;2023-06-22T08:10:24;97904.38;;;24.51
61977;BMP280;45905;50.570;10.428;2023-06-22T08:12:52;97902.47;;;24.63
61977;BMP280;45905;50.570;10.428;2023-06-22T08:15:20;97905.16;;;24.72
61977;BMP280;45905;50.570;10.428;2023-06-22T08:17:47;97913.06;;;24.82
61977;BMP280;45905;50.570;10.428;2023-06-22T08:20:15;97910.03;;;24.90
61977;BMP280;45905;50.570;10.428;2023-06-22T08:22:43;97910.38;;;24.98
61977;BMP280;45905;50.570;10.428;2023-06-22T08:25:11;97902.16;;;25.06
61977;BMP280;45905;50.570;10.428;2023-06-22T08:27:40;97896.53;;;25.14
61977;BMP280;45905;50.570;10.428;2023-06-22T08:30:11;97899.97;;;25.19
61977;BMP280;45905;50.570;10.428;2023-06-22T08:32:39;97882.63;;;25.25
61977;BMP280;45905;50.570;10.428;2023-06-22T08:35:07;97895.41;;;25.31
61977;BMP280;45905;50.570;10.428;2023-06-22T08:40:09;97904.63;;;25.48
61977;BMP280;45905;50.570;10.428;2023-06-22T08:42:39;97884.47;;;25.55
61977;BMP280;45905;50.570;10.428;2023-06-22T08:45:08;97877.03;;;25.63
61977;BMP280;45905;50.570;10.428;2023-06-22T08:47:36;97874.44;;;25.68
61977;BMP280;45905;50.570;10.428;2023-06-22T08:50:04;97874.53;;;25.78
61977;BMP280;45905;50.570;10.428;2023-06-22T08:52:32;97881.84;;;25.85
61977;BMP280;45905;50.570;10.428;2023-06-22T08:54:59;97874.13;;;25.90
61977;BMP280;45905;50.570;10.428;2023-06-22T08:57:28;97874.69;;;26.02
61977;BMP280;45905;50.570;10.428;2023-06-22T08:59:56;97878.38;;;26.11
61977;BMP280;45905;50.570;10.428;2023-06-22T09:02:27;97874.28;;;26.20
61977;BMP280;45905;50.570;10.428;2023-06-22T09:04:59;97884.97;;;26.28
61977;BMP280;45905;50.570;10.428;2023-06-22T09:07:27;97881.63;;;26.32
61977;BMP280;45905;50.570;10.428;2023-06-22T09:09:55;97872.81;;;26.38
61977;BMP280;45905;50.570;10.428;2023-06-22T09:12:23;97870.75;;;26.45
61977;BMP280;45905;50.570;10.428;2023-06-22T09:14:54;97869.53;;;26.52
61977;BMP280;45905;50.570;10.428;2023-06-22T09:17:22;97863.31;;;26.63
61977;BMP280;45905;50.570;10.428;2023-06-22T09:19:50;97855.78;;;26.71
61977;BMP280;45905;50.570;10.428;2023-06-22T09:22:18;97854.25;;;26.80
61977;BMP280;45905;50.570;10.428;2023-06-22T09:24:45;97862.59;;;26.87
61977;BMP280;45905;50.570;10.428;2023-06-22T09:27:13;97851.69;;;26.95
61977;BMP280;45905;50.570;10.428;2023-06-22T09:29:40;97851.44;;;27.06
61977;BMP280;45905;50.570;10.428;2023-06-22T09:32:08;97849.13;;;27.14
61977;BMP280;45905;50.570;10.428;2023-06-22T09:34:36;97843.16;;;27.23
61977;BMP280;45905;50.570;10.428;2023-06-22T09:37:04;97831.72;;;27.34
61977;BMP280;45905;50.570;10.428;2023-06-22T09:39:31;97838.75;;;27.43
61977;BMP280;45905;50.570;10.428;2023-06-22T09:42:00;97835.59;;;27.51
61977;BMP280;45905;50.570;10.428;2023-06-22T09:44:27;97834.28;;;27.58
61977;BMP280;45905;50.570;10.428;2023-06-22T09:46:55;97829.38;;;27.67
61977;BMP280;45905;50.570;10.428;2023-06-22T09:49:22;97833.53;;;27.73
61977;BMP280;45905;50.570;10.428;2023-06-22T09:52:10;97832.75;;;27.82
61977;BMP280;45905;50.570;10.428;2023-06-22T09:54:38;97830.91;;;27.87
61977;BMP280;45905;50.570;10.428;2023-06-22T09:57:06;97826.72;;;28.01
61977;BMP280;45905;50.570;10.428;2023-06-22T09:59:34;97822.78;;;28.08
61977;BMP280;45905;50.570;10.428;2023-06-22T10:02:01;97815.72;;;28.14
61977;BMP280;45905;50.570;10.428;2023-06-22T10:04:29;97819.06;;;28.19
61977;BMP280;45905;50.570;10.428;2023-06-22T10:06:57;97819.59;;;28.21
61977;BMP280;45905;50.570;10.428;2023-06-22T10:09:25;97818.28;;;28.33
61977;BMP280;45905;50.570;10.428;2023-06-22T10:11:53;97822.66;;;28.42
61977;BMP280;45905;50.570;10.428;2023-06-22T10:14:20;97815.06;;;28.51
61977;BMP280;45905;50.570;10.428;2023-06-22T10:16:48;97802.00;;;28.55
61977;BMP280;45905;50.570;10.428;2023-06-22T10:19:16;97823.88;;;28.59
61977;BMP280;45905;50.570;10.428;2023-06-22T10:21:43;97823.84;;;28.64
61977;BMP280;45905;50.570;10.428;2023-06-22T10:24:11;97821.22;;;28.69
61977;BMP280;45905;50.570;10.428;2023-06-22T10:26:39;97816.75;;;28.79
61977;BMP280;45905;50.570;10.428;2023-06-22T10:29:06;97808.38;;;28.82
61977;BMP280;45905;50.570;10.428;2023-06-22T10:31:43;97803.91;;;28.88
61977;BMP280;45905;50.570;10.428;2023-06-22T10:34:11;97806.47;;;28.92
61977;BMP280;45905;50.570;10.428;2023-06-22T10:36:39;97811.63;;;29.02
61977;BMP280;45905;50.570;10.428;2023-06-22T10:39:06;97801.66;;;29.09
61977;BMP280;45905;50.570;10.428;2023-06-22T10:41:35;97804.78;;;29.11
61977;BMP280;45905;50.570;10.428;2023-06-22T10:44:02;97787.03;;;29.13
61977;BMP280;45905;50.570;10.428;2023-06-22T10:46:30;97780.97;;;29.17
61977;BMP280;45905;50.570;10.428;2023-06-22T10:48:57;97768.19;;;29.21
61977;BMP280;45905;50.570;10.428;2023-06-22T10:51:26;97780.63;;;29.29
61977;BMP280;45905;50.570;10.428;2023-06-22T10:53:55;97778.78;;;29.34
61977;BMP280;45905;50.570;10.428;2023-06-22T10:56:23;97779.47;;;29.44
61977;BMP280;45905;50.570;10.428;2023-06-22T10:58:50;97776.81;;;29.49
61977;BMP280;45905;50.570;10.428;2023-06-22T11:01:18;97773.81;;;29.60
61977;BMP280;45905;50.570;10.428;2023-06-22T11:04:02;97768.56;;;29.65
61977;BMP280;45905;50.570;10.428;2023-06-22T11:06:31;97760.94;;;29.68
61977;BMP280;45905;50.570;10.428;2023-06-22T11:08:58;97753.59;;;29.70
61977;BMP280;45905;50.570;10.428;2023-06-22T11:11:33;97750.19;;;29.75
61977;BMP280;45905;50.570;10.428;2023-06-22T11:14:00;97744.06;;;29.84
61977;BMP280;45905;50.570;10.428;2023-06-22T11:16:28;97753.66;;;29.93
61977;BMP280;45905;50.570;10.428;2023-06-22T11:18:56;97749.06;;;30.04
61977;BMP280;45905;50.570;10.428;2023-06-22T11:21:23;97742.38;;;30.16
61977;BMP280;45905;50.570;10.428;2023-06-22T11:23:51;97729.84;;;30.36
61977;BMP280;45905;50.570;10.428;2023-06-22T11:26:19;97734.19;;;30.45
61977;BMP280;45905;50.570;10.428;2023-06-22T11:28:48;97725.41;;;30.54
61977;BMP280;45905;50.570;10.428;2023-06-22T11:31:15;97713.81;;;30.60
61977;BMP280;45905;50.570;10.428;2023-06-22T11:33:53;97701.66;;;30.69
61977;BMP280;45905;50.570;10.428;2023-06-22T11:36:20;97699.06;;;30.82
61977;BMP280;45905;50.570;10.428;2023-06-22T11:38:48;97687.53;;;31.01
61977;BMP280;45905;50.570;10.428;2023-06-22T11:41:16;97691.34;;;31.22
61977;BMP280;45905;50.570;10.428;2023-06-22T11:43:45;97688.16;;;31.24
61977;BMP280;45905;50.570;10.428;2023-06-22T11:46:12;97680.72;;;31.31
61977;BMP280;45905;50.570;10.428;2023-06-22T11:48:40;97676.66;;;31.52
61977;BMP280;45905;50.570;10.428;2023-06-22T11:51:07;97672.28;;;31.61
61977;BMP280;45905;50.570;10.428;2023-06-22T11:53:35;97661.94;;;31.69
61977;BMP280;45905;50.570;10.428;2023-06-22T11:56:03;97662.09;;;31.85
61977;BMP280;45905;50.570;10.428;2023-06-22T11:58:30;97652.78;;;31.93
61977;BMP280;45905;50.570;10.428;2023-06-22T12:00:58;97650.06;;;31.98
61977;BMP280;45905;50.570;10.428;2023-06-22T12:03:26;97642.47;;;32.09
61977;BMP280;45905;50.570;10.428;2023-06-22T12:05:53;97634.19;;;32.16
61977;BMP280;45905;50.570;10.428;2023-06-22T12:08:21;97633.19;;;32.25
61977;BMP280;45905;50.570;10.428;2023-06-22T12:10:50;97629.88;;;32.33
61977;BMP280;45905;50.570;10.428;2023-06-22T12:13:19;97632.19;;;32.47
61977;BMP280;45905;50.570;10.428;2023-06-22T12:15:46;97627.28;;;32.54
61977;BMP280;45905;50.570;10.428;2023-06-22T12:18:14;97623.69;;;32.72
61977;BMP280;45905;50.570;10.428;2023-06-22T12:20:42;97617.72;;;32.79
61977;BMP280;45905;50.570;10.428;2023-06-22T12:23:10;97609.28;;;32.91
61977;BMP280;45905;50.570;10.428;2023-06-22T12:25:37;97607.19;;;33.01
61977;BMP280;45905;50.570;10.428;2023-06-22T12:28:05;97611.88;;;33.12
61977;BMP280;45905;50.570;10.428;2023-06-22T12:30:35;97609.75;;;33.22
61977;BMP280;45905;50.570;10.428;2023-06-22T12:33:03;97609.94;;;33.26
61977;BMP280;45905;50.570;10.428;2023-06-22T12:35:30;97601.28;;;33.25
61977;BMP280;45905;50.570;10.428;2023-06-22T12:37:58;97600.66;;;33.28
61977;BMP280;45905;50.570;10.428;2023-06-22T12:40:26;97587.88;;;33.35
61977;BMP280;45905;50.570;10.428;2023-06-22T12:42:53;97587.94;;;33.43
61977;BMP280;45905;50.570;10.428;2023-06-22T12:45:21;97588.09;;;33.47
61977;BMP280;45905;50.570;10.428;2023-06-22T12:47:49;97569.88;;;33.50
61977;BMP280;45905;50.570;10.428;2023-06-22T12:50:17;97575.91;;;33.59
61977;BMP280;45905;50.570;10.428;2023-06-22T12:52:45;97570.97;;;33.66
61977;BMP280;45905;50.570;10.428;2023-06-22T12:55:13;97573.44;;;33.71
61977;BMP280;45905;50.570;10.428;2023-06-22T12:57:40;97558.16;;;33.81
61977;BMP280;45905;50.570;10.428;2023-06-22T13:00:08;97559.56;;;33.87
61977;BMP280;45905;50.570;10.428;2023-06-22T13:02:37;97567.31;;;33.92
61977;BMP280;45905;50.570;10.428;2023-06-22T13:05:05;97558.81;;;33.94
61977;BMP280;45905;50.570;10.428;2023-06-22T13:07:33;97542.28;;;33.94
61977;BMP280;45905;50.570;10.428;2023-06-22T13:10:01;97547.25;;;33.95
61977;BMP280;45905;50.570;10.428;2023-06-22T13:12:29;97545.03;;;34.06
61977;BMP280;45905;50.570;10.428;2023-06-22T13:14:56;97542.09;;;34.15
61977;BMP280;45905;50.570;10.428;2023-06-22T13:17:24;97542.56;;;34.26
61977;BMP280;45905;50.570;10.428;2023-06-22T13:19:51;97538.25;;;34.38
61977;BMP280;45905;50.570;10.428;2023-06-22T13:22:35;97531.88;;;34.47
61977;BMP280;45905;50.570;10.428;2023-06-22T13:25:11;97538.47;;;34.61
61977;BMP280;45905;50.570;10.428;2023-06-22T13:27:41;97529.94;;;34.72
61977;BMP280;45905;50.570;10.428;2023-06-22T13:30:09;97515.69;;;34.73
61977;BMP280;45905;50.570;10.428;2023-06-22T13:32:41;97509.78;;;34.76
61977;BMP280;45905;50.570;10.428;2023-06-22T13:35:10;97501.88;;;34.76
61977;BMP280;45905;50.570;10.428;2023-06-22T13:37:38;97494.34;;;34.75
61977;BMP280;45905;50.570;10.428;2023-06-22T13:40:07;97499.91;;;34.73
61977;BMP280;45905;50.570;10.428;2023-06-22T13:42:35;97493.38;;;34.79
61977;BMP280;45905;50.570;10.428;2023-06-22T13:45:02;97492.91;;;34.86
61977;BMP280;45905;50.570;10.428;2023-06-22T13:47:30;97493.25;;;34.84
61977;BMP280;45905;50.570;10.428;2023-06-22T13:50:00;97488.72;;;34.85
61977;BMP280;45905;50.570;10.428;2023-06-22T13:52:28;97471.50;;;34.95
61977;BMP280;45905;50.570;10.428;2023-06-22T13:54:55;97484.59;;;35.04
61977;BMP280;45905;50.570;10.428;2023-06-22T13:57:23;97477.44;;;35.12
61977;BMP280;45905;50.570;10.428;2023-06-22T13:59:50;97477.84;;;35.23
61977;BMP280;45905;50.570;10.428;2023-06-22T14:02:18;97469.44;;;35.29
61977;BMP280;45905;50.570;10.428;2023-06-22T14:04:46;97471.44;;;35.32
61977;BMP280;45905;50.570;10.428;2023-06-22T14:07:13;97477.81;;;35.31
61977;BMP280;45905;50.570;10.428;2023-06-22T14:09:41;97474.53;;;35.34